sensor_id;sensor_type;location;lat;lon;timestamp;P1;durP1;ratioP1;P2;durP2;ratioP2
23072;SDS011;67971;51.046;3.732;2023-03-05T00:01:31;19.67;;;7.13;;
23072;SDS011;67971;51.046;3.732;2023-03-05T00:03:58;17.33;;;6.77;;
23072;SDS011;67971;51.046;3.732;2023-03-05T00:06:25;17.43;;;6.30;;
23072;SDS011;67971;51.046;3.732;2023-03-05T00:08:52;15.30;;;6.20;;
23072;SDS011;67971;51.046;3.732;2023-03-05T00:11:20;18.40;;;6.80;;
23072;SDS011;67971;51.046;3.732;2023-03-05T00:13:47;15.13;;;6.33;;
23072;SDS011;67971;51.046;3.732;2023-03-05T00:16:15;15.20;;;6.40;;
23072;SDS011;67971;51.046;3.732;2023-03-05T00:18:41;16.63;;;6.03;;
23072;SDS011;67971;51.046;3.732;2023-03-05T00:21:21;23.27;;;7.60;;
23072;SDS011;67971;51.046;3.732;2023-03-05T00:23:51;14.50;;;6.37;;
23072;SDS011;67971;51.046;3.732;2023-03-05T00:26:18;26.23;;;8.40;;
23072;SDS011;67971;51.046;3.732;2023-03-05T00:28:44;21.23;;;7.33;;
23072;SDS011;67971;51.046;3.732;2023-03-05T00:31:18;21.23;;;6.27;;
23072;SDS011;67971;51.046;3.732;2023-03-05T00:33:50;14.37;;;5.10;;
23072;SDS011;67971;51.046;3.732;2023-03-05T00:36:19;15.03;;;5.37;;
23072;SDS011;67971;51.046;3.732;2023-03-05T00:38:46;9.23;;;3.40;;
23072;SDS011;67971;51.046;3.732;2023-03-05T00:41:11;12.73;;;3.33;;
23072;SDS011;67971;51.046;3.732;2023-03-05T00:43:37;11.20;;;3.30;;
23072;SDS011;67971;51.046;3.732;2023-03-05T00:46:03;9.00;;;3.07;;
23072;SDS011;67971;51.046;3.732;2023-03-05T00:48:28;6.80;;;2.30;;
23072;SDS011;67971;51.046;3.732;2023-03-05T00:50:54;12.10;;;2.40;;
23072;SDS011;67971;51.046;3.732;2023-03-05T00:53:20;8.67;;;2.87;;
23072;SDS011;67971;51.046;3.732;2023-03-05T00:55:46;10.67;;;2.37;;
23072;SDS011;67971;51.046;3.732;2023-03-05T00:58:12;7.13;;;2.07;;
23072;SDS011;67971;51.046;3.732;2023-03-05T01:00:37;4.47;;;2.73;;
23072;SDS011;67971;51.046;3.732;2023-03-05T01:03:03;8.07;;;2.43;;
23072;SDS011;67971;51.046;3.732;2023-03-05T01:05:29;6.43;;;2.70;;
23072;SDS011;67971;51.046;3.732;2023-03-05T01:07:54;6.10;;;2.67;;
23072;SDS011;67971;51.046;3.732;2023-03-05T01:10:21;9.53;;;3.10;;
23072;SDS011;67971;51.046;3.732;2023-03-05T01:12:50;10.10;;;2.70;;
23072;SDS011;67971;51.046;3.732;2023-03-05T01:15:16;9.57;;;2.23;;
23072;SDS011;67971;51.046;3.732;2023-03-05T01:17:42;10.17;;;2.80;;
23072;SDS011;67971;51.046;3.732;2023-03-05T01:20:10;6.23;;;2.37;;
23072;SDS011;67971;51.046;3.732;2023-03-05T01:22:37;7.07;;;2.37;;
23072;SDS011;67971;51.046;3.732;2023-03-05T01:25:03;9.43;;;3.00;;
23072;SDS011;67971;51.046;3.732;2023-03-05T01:27:29;10.50;;;3.00;;
23072;SDS011;67971;51.046;3.732;2023-03-05T01:29:55;10.37;;;3.10;;
23072;SDS011;67971;51.046;3.732;2023-03-05T01:32:20;9.33;;;3.60;;
23072;SDS011;67971;51.046;3.732;2023-03-05T01:34:46;5.70;;;3.33;;
23072;SDS011;67971;51.046;3.732;2023-03-05T01:37:12;8.77;;;3.70;;
23072;SDS011;67971;51.046;3.732;2023-03-05T01:39:37;9.03;;;4.03;;
23072;SDS011;67971;51.046;3.732;2023-03-05T01:42:04;11.50;;;4.20;;
23072;SDS011;67971;51.046;3.732;2023-03-05T01:44:30;8.80;;;3.97;;
23072;SDS011;67971;51.046;3.732;2023-03-05T01:46:57;7.03;;;3.90;;
23072;SDS011;67971;51.046;3.732;2023-03-05T01:51:55;6.47;;;4.13;;
23072;SDS011;67971;51.046;3.732;2023-03-05T01:54:37;8.60;;;4.07;;
23072;SDS011;67971;51.046;3.732;2023-03-05T01:57:05;10.57;;;4.20;;
23072;SDS011;67971;51.046;3.732;2023-03-05T01:59:35;10.43;;;4.30;;
23072;SDS011;67971;51.046;3.732;2023-03-05T02:02:03;8.33;;;4.00;;
23072;SDS011;67971;51.046;3.732;2023-03-05T02:04:34;10.47;;;3.80;;
23072;SDS011;67971;51.046;3.732;2023-03-05T02:07:07;9.30;;;3.90;;
23072;SDS011;67971;51.046;3.732;2023-03-05T02:09:36;8.33;;;4.10;;
23072;SDS011;67971;51.046;3.732;2023-03-05T02:12:02;8.70;;;4.70;;
23072;SDS011;67971;51.046;3.732;2023-03-05T02:14:28;8.83;;;3.93;;
23072;SDS011;67971;51.046;3.732;2023-03-05T02:16:54;13.20;;;4.50;;
23072;SDS011;67971;51.046;3.732;2023-03-05T02:19:19;12.77;;;4.43;;
23072;SDS011;67971;51.046;3.732;2023-03-05T02:21:46;11.30;;;4.50;;
23072;SDS011;67971;51.046;3.732;2023-03-05T02:24:14;8.70;;;4.37;;
23072;SDS011;67971;51.046;3.732;2023-03-05T02:26:42;13.00;;;4.77;;
23072;SDS011;67971;51.046;3.732;2023-03-05T02:29:09;15.37;;;5.27;;
23072;SDS011;67971;51.046;3.732;2023-03-05T02:31:41;14.30;;;5.63;;
23072;SDS011;67971;51.046;3.732;2023-03-05T02:34:07;14.13;;;5.20;;
23072;SDS011;67971;51.046;3.732;2023-03-05T02:36:33;11.30;;;5.50;;
23072;SDS011;67971;51.046;3.732;2023-03-05T02:38:59;13.93;;;5.30;;
23072;SDS011;67971;51.046;3.732;2023-03-05T02:41:24;14.43;;;5.60;;
23072;SDS011;67971;51.046;3.732;2023-03-05T02:43:50;15.20;;;5.70;;
23072;SDS011;67971;51.046;3.732;2023-03-05T02:46:16;12.27;;;5.87;;
23072;SDS011;67971;51.046;3.732;2023-03-05T02:48:42;13.83;;;6.73;;
23072;SDS011;67971;51.046;3.732;2023-03-05T02:51:08;7.70;;;5.30;;
23072;SDS011;67971;51.046;3.732;2023-03-05T02:53:34;8.77;;;5.50;;
23072;SDS011;67971;51.046;3.732;2023-03-05T02:56:00;16.40;;;6.13;;
23072;SDS011;67971;51.046;3.732;2023-03-05T02:58:26;19.27;;;7.33;;
23072;SDS011;67971;51.046;3.732;2023-03-05T03:00:52;10.70;;;6.37;;
23072;SDS011;67971;51.046;3.732;2023-03-05T03:03:17;10.20;;;6.20;;
23072;SDS011;67971;51.046;3.732;2023-03-05T03:05:43;14.73;;;6.07;;
23072;SDS011;67971;51.046;3.732;2023-03-05T03:08:09;14.70;;;6.50;;
23072;SDS011;67971;51.046;3.732;2023-03-05T03:10:35;13.27;;;6.70;;
23072;SDS011;67971;51.046;3.732;2023-03-05T03:13:01;12.27;;;6.93;;
23072;SDS011;67971;51.046;3.732;2023-03-05T03:15:27;14.77;;;6.87;;
23072;SDS011;67971;51.046;3.732;2023-03-05T03:17:53;14.37;;;6.70;;
23072;SDS011;67971;51.046;3.732;2023-03-05T03:20:19;13.37;;;7.60;;
23072;SDS011;67971;51.046;3.732;2023-03-05T03:22:45;16.97;;;7.97;;
23072;SDS011;67971;51.046;3.732;2023-03-05T03:25:15;11.63;;;7.40;;
23072;SDS011;67971;51.046;3.732;2023-03-05T03:27:42;15.83;;;7.50;;
23072;SDS011;67971;51.046;3.732;2023-03-05T03:30:08;16.37;;;7.77;;
23072;SDS011;67971;51.046;3.732;2023-03-05T03:32:35;17.43;;;7.80;;
23072;SDS011;67971;51.046;3.732;2023-03-05T03:35:00;12.60;;;7.47;;
23072;SDS011;67971;51.046;3.732;2023-03-05T03:37:26;16.50;;;7.73;;
23072;SDS011;67971;51.046;3.732;2023-03-05T03:39:52;18.97;;;7.20;;
23072;SDS011;67971;51.046;3.732;2023-03-05T03:42:18;14.90;;;7.40;;
23072;SDS011;67971;51.046;3.732;2023-03-05T03:44:45;13.63;;;7.23;;
23072;SDS011;67971;51.046;3.732;2023-03-05T03:47:12;15.47;;;7.57;;
23072;SDS011;67971;51.046;3.732;2023-03-05T03:49:37;12.10;;;6.83;;
23072;SDS011;67971;51.046;3.732;2023-03-05T03:52:03;11.70;;;7.73;;
23072;SDS011;67971;51.046;3.732;2023-03-05T03:54:30;13.83;;;7.50;;
23072;SDS011;67971;51.046;3.732;2023-03-05T03:56:56;14.83;;;7.57;;
23072;SDS011;67971;51.046;3.732;2023-03-05T03:59:22;15.00;;;7.70;;
23072;SDS011;67971;51.046;3.732;2023-03-05T04:01:48;11.97;;;7.50;;
23072;SDS011;67971;51.046;3.732;2023-03-05T04:04:14;12.33;;;7.30;;
23072;SDS011;67971;51.046;3.732;2023-03-05T04:06:39;10.83;;;7.07;;
23072;SDS011;67971;51.046;3.732;2023-03-05T04:09:06;12.40;;;7.90;;
23072;SDS011;67971;51.046;3.732;2023-03-05T04:11:32;19.70;;;8.60;;
23072;SDS011;67971;51.046;3.732;2023-03-05T04:13:59;13.93;;;8.37;;
23072;SDS011;67971;51.046;3.732;2023-03-05T04:16:25;17.10;;;8.90;;
23072;SDS011;67971;51.046;3.732;2023-03-05T04:18:51;18.23;;;9.20;;
23072;SDS011;67971;51.046;3.732;2023-03-05T04:21:16;20.60;;;10.73;;
23072;SDS011;67971;51.046;3.732;2023-03-05T04:23:42;17.37;;;10.57;;
23072;SDS011;67971;51.046;3.732;2023-03-05T04:26:08;20.93;;;10.47;;
23072;SDS011;67971;51.046;3.732;2023-03-05T04:28:34;18.50;;;11.13;;
23072;SDS011;67971;51.046;3.732;2023-03-05T04:31:00;24.47;;;11.73;;
23072;SDS011;67971;51.046;3.732;2023-03-05T04:33:26;22.80;;;13.33;;
23072;SDS011;67971;51.046;3.732;2023-03-05T04:35:51;23.93;;;13.00;;
23072;SDS011;67971;51.046;3.732;2023-03-05T04:38:17;28.43;;;13.73;;
23072;SDS011;67971;51.046;3.732;2023-03-05T04:40:43;22.17;;;14.20;;
23072;SDS011;67971;51.046;3.732;2023-03-05T04:43:09;24.13;;;15.40;;
23072;SDS011;67971;51.046;3.732;2023-03-05T04:45:38;31.27;;;17.03;;
23072;SDS011;67971;51.046;3.732;2023-03-05T04:48:04;26.27;;;16.97;;
23072;SDS011;67971;51.046;3.732;2023-03-05T04:50:31;32.40;;;17.97;;
23072;SDS011;67971;51.046;3.732;2023-03-05T04:52:57;27.37;;;17.73;;
23072;SDS011;67971;51.046;3.732;2023-03-05T04:55:23;33.77;;;16.97;;
23072;SDS011;67971;51.046;3.732;2023-03-05T04:57:49;28.47;;;16.17;;
23072;SDS011;67971;51.046;3.732;2023-03-05T05:00:15;34.43;;;17.13;;
23072;SDS011;67971;51.046;3.732;2023-03-05T05:02:41;30.83;;;16.60;;
23072;SDS011;67971;51.046;3.732;2023-03-05T05:05:13;27.40;;;16.40;;
23072;SDS011;67971;51.046;3.732;2023-03-05T05:07:46;25.13;;;15.60;;
23072;SDS011;67971;51.046;3.732;2023-03-05T05:10:13;27.67;;;16.70;;
23072;SDS011;67971;51.046;3.732;2023-03-05T05:12:39;26.40;;;16.00;;
23072;SDS011;67971;51.046;3.732;2023-03-05T05:15:05;31.20;;;15.90;;
23072;SDS011;67971;51.046;3.732;2023-03-05T05:17:32;26.23;;;15.57;;
23072;SDS011;67971;51.046;3.732;2023-03-05T05:20:01;32.27;;;15.70;;
23072;SDS011;67971;51.046;3.732;2023-03-05T05:22:30;25.93;;;14.57;;
23072;SDS011;67971;51.046;3.732;2023-03-05T05:24:56;21.77;;;13.33;;
23072;SDS011;67971;51.046;3.732;2023-03-05T05:27:22;21.83;;;12.07;;
23072;SDS011;67971;51.046;3.732;2023-03-05T05:29:47;19.47;;;12.60;;
23072;SDS011;67971;51.046;3.732;2023-03-05T05:32:17;21.90;;;13.40;;
23072;SDS011;67971;51.046;3.732;2023-03-05T05:34:44;22.83;;;12.80;;
23072;SDS011;67971;51.046;3.732;2023-03-05T05:37:10;27.73;;;14.87;;
23072;SDS011;67971;51.046;3.732;2023-03-05T05:39:36;22.37;;;12.40;;
23072;SDS011;67971;51.046;3.732;2023-03-05T05:42:02;25.00;;;13.67;;
23072;SDS011;67971;51.046;3.732;2023-03-05T05:44:28;22.10;;;12.83;;
23072;SDS011;67971;51.046;3.732;2023-03-05T05:46:53;26.87;;;13.93;;
23072;SDS011;67971;51.046;3.732;2023-03-05T05:49:19;27.40;;;14.20;;
23072;SDS011;67971;51.046;3.732;2023-03-05T05:51:45;20.80;;;13.67;;
23072;SDS011;67971;51.046;3.732;2023-03-05T05:54:12;19.53;;;13.30;;
23072;SDS011;67971;51.046;3.732;2023-03-05T05:56:38;25.30;;;12.47;;
23072;SDS011;67971;51.046;3.732;2023-03-05T05:59:04;20.23;;;10.93;;
23072;SDS011;67971;51.046;3.732;2023-03-05T06:01:30;17.87;;;11.10;;
23072;SDS011;67971;51.046;3.732;2023-03-05T06:03:57;15.97;;;9.10;;
23072;SDS011;67971;51.046;3.732;2023-03-05T06:06:23;11.47;;;7.63;;
23072;SDS011;67971;51.046;3.732;2023-03-05T06:08:50;11.03;;;6.70;;
23072;SDS011;67971;51.046;3.732;2023-03-05T06:11:16;13.07;;;8.20;;
23072;SDS011;67971;51.046;3.732;2023-03-05T06:13:43;8.47;;;6.30;;
23072;SDS011;67971;51.046;3.732;2023-03-05T06:16:13;9.50;;;6.77;;
23072;SDS011;67971;51.046;3.732;2023-03-05T06:18:41;9.70;;;6.43;;
23072;SDS011;67971;51.046;3.732;2023-03-05T06:21:09;10.57;;;6.93;;
23072;SDS011;67971;51.046;3.732;2023-03-05T06:23:36;10.53;;;7.53;;
23072;SDS011;67971;51.046;3.732;2023-03-05T06:26:03;10.63;;;7.87;;
23072;SDS011;67971;51.046;3.732;2023-03-05T06:28:30;12.97;;;8.57;;
23072;SDS011;67971;51.046;3.732;2023-03-05T06:31:07;12.97;;;9.07;;
23072;SDS011;67971;51.046;3.732;2023-03-05T06:33:34;11.07;;;8.53;;
23072;SDS011;67971;51.046;3.732;2023-03-05T06:36:11;14.13;;;8.57;;
23072;SDS011;67971;51.046;3.732;2023-03-05T06:38:40;13.17;;;8.27;;
23072;SDS011;67971;51.046;3.732;2023-03-05T06:41:07;15.63;;;9.50;;
23072;SDS011;67971;51.046;3.732;2023-03-05T06:43:36;13.53;;;8.57;;
23072;SDS011;67971;51.046;3.732;2023-03-05T06:46:05;14.37;;;8.87;;
23072;SDS011;67971;51.046;3.732;2023-03-05T06:48:37;12.07;;;8.80;;
23072;SDS011;67971;51.046;3.732;2023-03-05T06:51:03;11.57;;;8.07;;
23072;SDS011;67971;51.046;3.732;2023-03-05T06:53:29;11.97;;;8.03;;
23072;SDS011;67971;51.046;3.732;2023-03-05T06:55:55;15.20;;;9.67;;
23072;SDS011;67971;51.046;3.732;2023-03-05T06:58:22;16.53;;;8.53;;
23072;SDS011;67971;51.046;3.732;2023-03-05T07:00:49;9.93;;;7.43;;
23072;SDS011;67971;51.046;3.732;2023-03-05T07:03:14;9.37;;;7.13;;
23072;SDS011;67971;51.046;3.732;2023-03-05T07:05:41;8.20;;;6.93;;
23072;SDS011;67971;51.046;3.732;2023-03-05T07:08:07;11.20;;;7.10;;
23072;SDS011;67971;51.046;3.732;2023-03-05T07:10:38;9.20;;;7.50;;
23072;SDS011;67971;51.046;3.732;2023-03-05T07:13:04;7.23;;;5.30;;
23072;SDS011;67971;51.046;3.732;2023-03-05T07:15:30;8.50;;;5.00;;
23072;SDS011;67971;51.046;3.732;2023-03-05T07:17:58;6.80;;;4.43;;
23072;SDS011;67971;51.046;3.732;2023-03-05T07:20:24;6.70;;;4.20;;
23072;SDS011;67971;51.046;3.732;2023-03-05T07:22:50;4.87;;;3.07;;
23072;SDS011;67971;51.046;3.732;2023-03-05T07:25:16;4.97;;;3.27;;
23072;SDS011;67971;51.046;3.732;2023-03-05T07:27:46;7.40;;;4.23;;
23072;SDS011;67971;51.046;3.732;2023-03-05T07:30:12;7.97;;;4.70;;
23072;SDS011;67971;51.046;3.732;2023-03-05T07:32:39;8.00;;;4.90;;
23072;SDS011;67971;51.046;3.732;2023-03-05T07:35:05;8.30;;;4.63;;
23072;SDS011;67971;51.046;3.732;2023-03-05T07:37:31;9.13;;;4.77;;
23072;SDS011;67971;51.046;3.732;2023-03-05T07:39:57;7.27;;;5.10;;
23072;SDS011;67971;51.046;3.732;2023-03-05T07:42:22;8.30;;;5.03;;
23072;SDS011;67971;51.046;3.732;2023-03-05T07:44:48;8.57;;;4.43;;
23072;SDS011;67971;51.046;3.732;2023-03-05T07:47:14;5.63;;;4.30;;
23072;SDS011;67971;51.046;3.732;2023-03-05T07:49:40;9.40;;;5.00;;
23072;SDS011;67971;51.046;3.732;2023-03-05T07:52:06;6.13;;;4.80;;
23072;SDS011;67971;51.046;3.732;2023-03-05T07:54:39;7.60;;;4.70;;
23072;SDS011;67971;51.046;3.732;2023-03-05T07:57:06;6.77;;;4.97;;
23072;SDS011;67971;51.046;3.732;2023-03-05T07:59:32;10.33;;;4.30;;
23072;SDS011;67971;51.046;3.732;2023-03-05T08:01:58;9.13;;;5.13;;
23072;SDS011;67971;51.046;3.732;2023-03-05T08:04:25;8.07;;;4.50;;
23072;SDS011;67971;51.046;3.732;2023-03-05T08:06:53;8.93;;;4.50;;
23072;SDS011;67971;51.046;3.732;2023-03-05T08:09:18;5.03;;;4.30;;
23072;SDS011;67971;51.046;3.732;2023-03-05T08:11:44;5.60;;;4.37;;
23072;SDS011;67971;51.046;3.732;2023-03-05T08:14:10;6.27;;;4.77;;
23072;SDS011;67971;51.046;3.732;2023-03-05T08:16:37;7.80;;;4.87;;
23072;SDS011;67971;51.046;3.732;2023-03-05T08:19:04;9.57;;;5.80;;
23072;SDS011;67971;51.046;3.732;2023-03-05T08:21:32;8.77;;;5.80;;
23072;SDS011;67971;51.046;3.732;2023-03-05T08:24:00;8.63;;;5.47;;
23072;SDS011;67971;51.046;3.732;2023-03-05T08:26:28;12.60;;;6.13;;
23072;SDS011;67971;51.046;3.732;2023-03-05T08:28:56;7.23;;;6.27;;
23072;SDS011;67971;51.046;3.732;2023-03-05T08:31:22;9.60;;;5.83;;
23072;SDS011;67971;51.046;3.732;2023-03-05T08:33:50;8.90;;;5.33;;
23072;SDS011;67971;51.046;3.732;2023-03-05T08:36:17;8.73;;;5.13;;
23072;SDS011;67971;51.046;3.732;2023-03-05T08:38:43;8.77;;;4.57;;
23072;SDS011;67971;51.046;3.732;2023-03-05T08:41:10;6.17;;;4.23;;
23072;SDS011;67971;51.046;3.732;2023-03-05T08:43:37;7.27;;;4.30;;
23072;SDS011;67971;51.046;3.732;2023-03-05T08:46:03;7.83;;;3.97;;
23072;SDS011;67971;51.046;3.732;2023-03-05T08:48:29;7.20;;;3.97;;
23072;SDS011;67971;51.046;3.732;2023-03-05T08:50:55;5.27;;;3.87;;
23072;SDS011;67971;51.046;3.732;2023-03-05T08:53:21;4.83;;;3.67;;
23072;SDS011;67971;51.046;3.732;2023-03-05T08:55:57;4.63;;;4.13;;
23072;SDS011;67971;51.046;3.732;2023-03-05T08:58:23;5.73;;;3.83;;
23072;SDS011;67971;51.046;3.732;2023-03-05T09:00:49;4.97;;;3.40;;
23072;SDS011;67971;51.046;3.732;2023-03-05T09:03:16;5.40;;;3.23;;
23072;SDS011;67971;51.046;3.732;2023-03-05T09:05:42;5.60;;;3.50;;
23072;SDS011;67971;51.046;3.732;2023-03-05T09:08:08;7.17;;;3.67;;
23072;SDS011;67971;51.046;3.732;2023-03-05T09:10:34;5.03;;;2.93;;
23072;SDS011;67971;51.046;3.732;2023-03-05T09:13:02;5.17;;;3.17;;
23072;SDS011;67971;51.046;3.732;2023-03-05T09:15:28;3.23;;;2.93;;
23072;SDS011;67971;51.046;3.732;2023-03-05T09:17:55;4.00;;;3.30;;
23072;SDS011;67971;51.046;3.732;2023-03-05T09:20:21;4.20;;;2.50;;
23072;SDS011;67971;51.046;3.732;2023-03-05T09:22:47;3.67;;;3.10;;
23072;SDS011;67971;51.046;3.732;2023-03-05T09:25:13;5.07;;;3.33;;
23072;SDS011;67971;51.046;3.732;2023-03-05T09:27:38;5.03;;;3.20;;
23072;SDS011;67971;51.046;3.732;2023-03-05T09:30:04;4.70;;;2.97;;
23072;SDS011;67971;51.046;3.732;2023-03-05T09:32:31;5.43;;;2.83;;
23072;SDS011;67971;51.046;3.732;2023-03-05T09:34:57;3.80;;;2.97;;
23072;SDS011;67971;51.046;3.732;2023-03-05T09:37:23;6.50;;;3.77;;
23072;SDS011;67971;51.046;3.732;2023-03-05T09:39:49;3.27;;;2.83;;
23072;SDS011;67971;51.046;3.732;2023-03-05T09:50:41;5.27;;;2.70;;
23072;SDS011;67971;51.046;3.732;2023-03-05T09:55:55;5.07;;;3.37;;
23072;SDS011;67971;51.046;3.732;2023-03-05T09:58:29;11.27;;;3.40;;
23072;SDS011;67971;51.046;3.732;2023-03-05T10:03:43;5.33;;;3.87;;
23072;SDS011;67971;51.046;3.732;2023-03-05T10:06:34;6.03;;;2.83;;
23072;SDS011;67971;51.046;3.732;2023-03-05T10:09:12;4.10;;;2.67;;
23072;SDS011;67971;51.046;3.732;2023-03-05T10:11:49;4.67;;;3.07;;
23072;SDS011;67971;51.046;3.732;2023-03-05T10:14:29;4.83;;;3.10;;
23072;SDS011;67971;51.046;3.732;2023-03-05T10:20:06;2.90;;;2.20;;
23072;SDS011;67971;51.046;3.732;2023-03-05T10:28:15;5.50;;;2.70;;
23072;SDS011;67971;51.046;3.732;2023-03-05T10:30:58;6.63;;;2.43;;
23072;SDS011;67971;51.046;3.732;2023-03-05T10:34:36;2.50;;;1.80;;
23072;SDS011;67971;51.046;3.732;2023-03-05T10:42:20;5.57;;;2.43;;
23072;SDS011;67971;51.046;3.732;2023-03-05T10:45:23;3.03;;;2.20;;
23072;SDS011;67971;51.046;3.732;2023-03-05T10:50:35;2.67;;;0.80;;
23072;SDS011;67971;51.046;3.732;2023-03-05T10:55:34;1.17;;;0.70;;
23072;SDS011;67971;51.046;3.732;2023-03-05T10:58:01;6.93;;;2.10;;
23072;SDS011;67971;51.046;3.732;2023-03-05T11:00:35;2.67;;;1.00;;
23072;SDS011;67971;51.046;3.732;2023-03-05T11:03:03;2.07;;;0.60;;
23072;SDS011;67971;51.046;3.732;2023-03-05T11:05:35;2.00;;;0.80;;
23072;SDS011;67971;51.046;3.732;2023-03-05T11:10:41;6.53;;;1.00;;
23072;SDS011;67971;51.046;3.732;2023-03-05T11:13:19;4.93;;;2.07;;
23072;SDS011;67971;51.046;3.732;2023-03-05T11:16:00;5.00;;;1.50;;
23072;SDS011;67971;51.046;3.732;2023-03-05T11:18:28;5.20;;;1.23;;
23072;SDS011;67971;51.046;3.732;2023-03-05T11:26:50;1.77;;;1.03;;
23072;SDS011;67971;51.046;3.732;2023-03-05T11:29:30;3.97;;;1.63;;
23072;SDS011;67971;51.046;3.732;2023-03-05T11:34:49;6.60;;;1.83;;
23072;SDS011;67971;51.046;3.732;2023-03-05T11:37:27;3.53;;;2.00;;
23072;SDS011;67971;51.046;3.732;2023-03-05T11:42:44;6.10;;;1.97;;
23072;SDS011;67971;51.046;3.732;2023-03-05T11:45:19;5.00;;;1.70;;
23072;SDS011;67971;51.046;3.732;2023-03-05T11:47:49;9.70;;;1.70;;
23072;SDS011;67971;51.046;3.732;2023-03-05T11:52:51;3.10;;;1.30;;
23072;SDS011;67971;51.046;3.732;2023-03-05T11:58:21;3.60;;;1.33;;
23072;SDS011;67971;51.046;3.732;2023-03-05T12:01:02;5.73;;;1.07;;
23072;SDS011;67971;51.046;3.732;2023-03-05T12:03:31;4.00;;;1.80;;
23072;SDS011;67971;51.046;3.732;2023-03-05T12:06:01;9.13;;;3.00;;
23072;SDS011;67971;51.046;3.732;2023-03-05T12:08:52;4.93;;;1.93;;
23072;SDS011;67971;51.046;3.732;2023-03-05T12:11:27;1.87;;;0.50;;
23072;SDS011;67971;51.046;3.732;2023-03-05T12:13:58;3.43;;;0.70;;
23072;SDS011;67971;51.046;3.732;2023-03-05T12:21:50;8.47;;;0.87;;
23072;SDS011;67971;51.046;3.732;2023-03-05T12:31:55;2.53;;;1.10;;
23072;SDS011;67971;51.046;3.732;2023-03-05T12:34:36;3.03;;;1.20;;
23072;SDS011;67971;51.046;3.732;2023-03-05T12:37:12;1.43;;;0.90;;
23072;SDS011;67971;51.046;3.732;2023-03-05T12:39:48;2.27;;;0.90;;
23072;SDS011;67971;51.046;3.732;2023-03-05T12:47:43;3.10;;;2.17;;
23072;SDS011;67971;51.046;3.732;2023-03-05T12:52:51;6.07;;;2.77;;
23072;SDS011;67971;51.046;3.732;2023-03-05T12:55:29;7.37;;;2.37;;
23072;SDS011;67971;51.046;3.732;2023-03-05T12:57:59;3.53;;;1.70;;
23072;SDS011;67971;51.046;3.732;2023-03-05T13:03:03;2.43;;;1.53;;
23072;SDS011;67971;51.046;3.732;2023-03-05T13:05:36;5.03;;;1.20;;
23072;SDS011;67971;51.046;3.732;2023-03-05T13:08:18;5.30;;;1.10;;
23072;SDS011;67971;51.046;3.732;2023-03-05T13:10:58;3.33;;;1.90;;
23072;SDS011;67971;51.046;3.732;2023-03-05T13:13:41;2.60;;;1.60;;
23072;SDS011;67971;51.046;3.732;2023-03-05T13:16:19;4.00;;;2.00;;
23072;SDS011;67971;51.046;3.732;2023-03-05T13:18:47;3.90;;;1.30;;
23072;SDS011;67971;51.046;3.732;2023-03-05T13:21:15;3.87;;;1.17;;
23072;SDS011;67971;51.046;3.732;2023-03-05T13:23:46;1.73;;;1.30;;
23072;SDS011;67971;51.046;3.732;2023-03-05T13:26:23;8.70;;;1.60;;
23072;SDS011;67971;51.046;3.732;2023-03-05T13:29:11;2.10;;;1.40;;
23072;SDS011;67971;51.046;3.732;2023-03-05T13:34:44;3.17;;;1.27;;
23072;SDS011;67971;51.046;3.732;2023-03-05T13:37:15;3.67;;;2.43;;
23072;SDS011;67971;51.046;3.732;2023-03-05T13:39:47;8.53;;;2.40;;
23072;SDS011;67971;51.046;3.732;2023-03-05T13:42:22;4.03;;;1.90;;
23072;SDS011;67971;51.046;3.732;2023-03-05T13:44:55;5.63;;;1.57;;
23072;SDS011;67971;51.046;3.732;2023-03-05T13:47:25;3.10;;;1.33;;
23072;SDS011;67971;51.046;3.732;2023-03-05T13:50:00;2.63;;;1.67;;
23072;SDS011;67971;51.046;3.732;2023-03-05T13:52:30;7.27;;;1.70;;
23072;SDS011;67971;51.046;3.732;2023-03-05T13:54:58;5.43;;;1.80;;
23072;SDS011;67971;51.046;3.732;2023-03-05T13:57:40;5.17;;;1.63;;
23072;SDS011;67971;51.046;3.732;2023-03-05T14:03:10;4.70;;;1.40;;
23072;SDS011;67971;51.046;3.732;2023-03-05T14:05:50;2.83;;;1.90;;
23072;SDS011;67971;51.046;3.732;2023-03-05T14:08:18;3.67;;;1.90;;
23072;SDS011;67971;51.046;3.732;2023-03-05T14:10:50;4.73;;;1.80;;
23072;SDS011;67971;51.046;3.732;2023-03-05T14:13:36;3.50;;;2.33;;
23072;SDS011;67971;51.046;3.732;2023-03-05T14:16:09;4.77;;;2.40;;
23072;SDS011;67971;51.046;3.732;2023-03-05T14:18:39;6.73;;;3.03;;
23072;SDS011;67971;51.046;3.732;2023-03-05T14:21:18;4.53;;;3.30;;
23072;SDS011;67971;51.046;3.732;2023-03-05T14:23:46;8.67;;;3.50;;
23072;SDS011;67971;51.046;3.732;2023-03-05T14:28:43;5.90;;;4.23;;
23072;SDS011;67971;51.046;3.732;2023-03-05T14:31:14;7.60;;;4.30;;
23072;SDS011;67971;51.046;3.732;2023-03-05T14:33:42;9.77;;;4.60;;
23072;SDS011;67971;51.046;3.732;2023-03-05T14:36:08;5.43;;;4.57;;
23072;SDS011;67971;51.046;3.732;2023-03-05T14:38:38;10.27;;;4.77;;
23072;SDS011;67971;51.046;3.732;2023-03-05T14:43:46;5.50;;;4.00;;
23072;SDS011;67971;51.046;3.732;2023-03-05T14:46:12;7.47;;;4.70;;
23072;SDS011;67971;51.046;3.732;2023-03-05T14:48:38;9.37;;;4.40;;
23072;SDS011;67971;51.046;3.732;2023-03-05T14:51:03;9.03;;;4.47;;
23072;SDS011;67971;51.046;3.732;2023-03-05T14:53:33;8.07;;;4.43;;
23072;SDS011;67971;51.046;3.732;2023-03-05T14:56:05;10.43;;;5.17;;
23072;SDS011;67971;51.046;3.732;2023-03-05T14:58:47;11.17;;;5.50;;
23072;SDS011;67971;51.046;3.732;2023-03-05T15:01:12;15.57;;;5.73;;
23072;SDS011;67971;51.046;3.732;2023-03-05T15:03:38;11.87;;;6.17;;
23072;SDS011;67971;51.046;3.732;2023-03-05T15:06:05;11.70;;;6.17;;
23072;SDS011;67971;51.046;3.732;2023-03-05T15:08:34;19.43;;;7.13;;
23072;SDS011;67971;51.046;3.732;2023-03-05T15:11:00;13.97;;;6.17;;
23072;SDS011;67971;51.046;3.732;2023-03-05T15:13:27;15.10;;;6.03;;
23072;SDS011;67971;51.046;3.732;2023-03-05T15:15:53;10.00;;;6.60;;
23072;SDS011;67971;51.046;3.732;2023-03-05T15:18:19;9.57;;;5.77;;
23072;SDS011;67971;51.046;3.732;2023-03-05T15:20:46;9.30;;;6.10;;
23072;SDS011;67971;51.046;3.732;2023-03-05T15:23:13;14.73;;;6.37;;
23072;SDS011;67971;51.046;3.732;2023-03-05T15:25:39;11.90;;;6.70;;
23072;SDS011;67971;51.046;3.732;2023-03-05T15:28:05;11.60;;;6.73;;
23072;SDS011;67971;51.046;3.732;2023-03-05T15:30:33;10.20;;;6.40;;
23072;SDS011;67971;51.046;3.732;2023-03-05T15:33:05;13.00;;;7.03;;
23072;SDS011;67971;51.046;3.732;2023-03-05T15:35:33;11.87;;;6.93;;
23072;SDS011;67971;51.046;3.732;2023-03-05T15:37:59;11.63;;;6.47;;
23072;SDS011;67971;51.046;3.732;2023-03-05T15:40:25;18.03;;;7.23;;
23072;SDS011;67971;51.046;3.732;2023-03-05T15:42:55;13.67;;;6.80;;
23072;SDS011;67971;51.046;3.732;2023-03-05T15:45:21;12.03;;;7.07;;
23072;SDS011;67971;51.046;3.732;2023-03-05T15:47:48;15.13;;;7.23;;
23072;SDS011;67971;51.046;3.732;2023-03-05T15:50:14;13.90;;;7.37;;
23072;SDS011;67971;51.046;3.732;2023-03-05T15:52:40;14.27;;;7.63;;
23072;SDS011;67971;51.046;3.732;2023-03-05T15:55:06;16.37;;;7.40;;
23072;SDS011;67971;51.046;3.732;2023-03-05T15:57:33;17.90;;;7.73;;
23072;SDS011;67971;51.046;3.732;2023-03-05T16:00:02;15.73;;;7.97;;
23072;SDS011;67971;51.046;3.732;2023-03-05T16:02:30;10.97;;;7.00;;
23072;SDS011;67971;51.046;3.732;2023-03-05T16:04:55;14.70;;;8.07;;
23072;SDS011;67971;51.046;3.732;2023-03-05T16:07:21;12.87;;;7.17;;
23072;SDS011;67971;51.046;3.732;2023-03-05T16:09:47;18.20;;;7.90;;
23072;SDS011;67971;51.046;3.732;2023-03-05T16:12:15;12.57;;;7.30;;
23072;SDS011;67971;51.046;3.732;2023-03-05T16:14:44;11.17;;;6.27;;
23072;SDS011;67971;51.046;3.732;2023-03-05T16:17:10;11.73;;;6.67;;
23072;SDS011;67971;51.046;3.732;2023-03-05T16:19:38;10.57;;;6.33;;